createdAt,value
2019-04-29T00:01:56.662Z,81.90
2019-04-29T00:04:25.726Z,81.90
2019-04-29T00:06:54.828Z,81.80
2019-04-29T00:09:24.337Z,81.90
2019-04-29T00:11:53.380Z,81.90
2019-04-29T00:14:22.449Z,81.90
2019-04-29T00:17:05.338Z,81.80
2019-04-29T00:19:38.986Z,81.90
2019-04-29T00:22:08.289Z,82.00
2019-04-29T00:24:37.335Z,81.90
2019-04-29T00:27:06.369Z,81.90
2019-04-29T00:29:35.420Z,81.90
2019-04-29T00:32:05.325Z,82.00
2019-04-29T00:34:34.422Z,82.00
2019-04-29T00:37:21.678Z,82.10
2019-04-29T00:39:58.511Z,82.10
2019-04-29T00:42:35.197Z,82.20
2019-04-29T00:45:06.062Z,82.40
2019-04-29T00:47:35.105Z,82.50
2019-04-29T00:50:06.414Z,82.60
2019-04-29T00:52:35.461Z,82.90
2019-04-29T00:55:10.297Z,83.00
2019-04-29T00:57:39.351Z,83.20
2019-04-29T01:00:11.776Z,83.40
2019-04-29T01:02:40.984Z,83.50
2019-04-29T01:05:10.706Z,83.60
2019-04-29T01:07:39.842Z,83.40
2019-04-29T01:10:09.516Z,83.50
2019-04-29T01:12:38.750Z,83.50
2019-04-29T01:15:07.970Z,83.50
2019-04-29T01:17:37.122Z,83.70
2019-04-29T01:20:07.874Z,83.90
2019-04-29T01:22:36.959Z,84.00
2019-04-29T01:25:06.600Z,84.00
2019-04-29T01:27:43.290Z,84.20
2019-04-29T01:30:15.476Z,84.20
2019-04-29T01:32:44.564Z,84.30
2019-04-29T01:35:13.664Z,84.30
2019-04-29T01:37:42.788Z,84.40
2019-04-29T01:40:29.154Z,84.50
2019-04-29T01:42:58.212Z,84.50
2019-04-29T01:45:27.267Z,84.70
2019-04-29T01:47:56.329Z,84.70
2019-04-29T01:50:25.368Z,84.80
2019-04-29T01:52:54.436Z,85.00
2019-04-29T01:55:23.488Z,85.00
2019-04-29T01:57:52.549Z,85.00
2019-04-29T02:00:21.685Z,85.00
2019-04-29T02:02:50.725Z,85.10
2019-04-29T02:05:19.861Z,85.20
2019-04-29T02:07:48.910Z,85.20
2019-04-29T02:10:34.637Z,85.40
2019-04-29T02:13:03.749Z,85.50
2019-04-29T02:15:32.878Z,85.60
2019-04-29T02:18:01.918Z,85.70
2019-04-29T02:20:30.965Z,86.00
2019-04-29T02:23:01.646Z,85.90
2019-04-29T02:25:38.165Z,86.20
2019-04-29T02:28:07.223Z,86.20
2019-04-29T02:30:50.565Z,86.40
2019-04-29T02:33:19.625Z,86.40
2019-04-29T02:35:48.691Z,86.60
2019-04-29T02:38:25.372Z,86.70
2019-04-29T02:40:58.807Z,86.80
2019-04-29T02:43:29.497Z,86.80
2019-04-29T02:45:58.560Z,86.80
2019-04-29T02:48:31.665Z,86.90
2019-04-29T02:50:58.400Z,86.80
2019-04-29T02:53:27.438Z,86.90
2019-04-29T02:55:58.132Z,86.90
2019-04-29T02:58:38.021Z,86.90
2019-04-29T03:01:26.712Z,87.00
2019-04-29T03:03:57.396Z,86.90
2019-04-29T03:06:26.478Z,87.00
2019-04-29T03:08:55.590Z,87.10
2019-04-29T03:11:24.838Z,87.20
2019-04-29T03:13:53.885Z,87.10
2019-04-29T03:16:23.067Z,87.10
2019-04-29T03:18:54.718Z,87.10
2019-04-29T03:21:31.634Z,87.20
2019-04-29T03:24:00.699Z,87.40
2019-04-29T03:26:29.748Z,87.40
2019-04-29T03:28:58.814Z,87.40
2019-04-29T03:31:27.856Z,87.50
2019-04-29T03:33:56.926Z,87.40
2019-04-29T03:36:26.230Z,87.50
2019-04-29T03:38:55.339Z,87.50
2019-04-29T03:41:24.399Z,87.70
2019-04-29T03:43:53.563Z,87.70
2019-04-29T03:46:22.734Z,87.70
2019-04-29T03:48:51.819Z,87.70
2019-04-29T03:51:20.868Z,87.80
2019-04-29T03:53:50.009Z,87.70
2019-04-29T03:56:19.082Z,87.60
2019-04-29T03:58:48.194Z,87.50
2019-04-29T04:01:27.783Z,87.70
2019-04-29T04:04:16.425Z,87.70
2019-04-29T04:06:47.116Z,87.70
2019-04-29T04:09:17.811Z,87.70
2019-04-29T04:11:46.875Z,87.70
2019-04-29T04:14:15.926Z,87.70
2019-04-29T04:16:55.476Z,87.70
2019-04-29T04:19:25.816Z,87.70
2019-04-29T04:21:54.871Z,87.90
2019-04-29T04:24:23.953Z,87.90
2019-04-29T04:26:52.992Z,87.90
2019-04-29T04:29:22.071Z,87.90
2019-04-29T04:31:51.168Z,87.90
2019-04-29T04:34:20.361Z,87.70
2019-04-29T04:36:49.428Z,87.70
2019-04-29T04:39:18.572Z,87.60
2019-04-29T04:41:47.618Z,87.60
2019-04-29T04:44:16.690Z,88.00
2019-04-29T04:46:45.756Z,87.20
2019-04-29T04:49:15.916Z,87.20
2019-04-29T04:51:45.260Z,87.00
2019-04-29T04:54:14.309Z,87.00
2019-04-29T04:56:43.356Z,87.10
2019-04-29T04:59:12.428Z,87.10
2019-04-29T05:01:41.490Z,86.90
2019-04-29T05:04:10.547Z,86.90
2019-04-29T05:06:39.649Z,86.70
2019-04-29T05:09:08.770Z,86.40
2019-04-29T05:11:37.879Z,86.50
2019-04-29T05:14:06.952Z,86.40
2019-04-29T05:16:36.034Z,86.40
2019-04-29T05:19:05.108Z,86.10
2019-04-29T05:21:34.200Z,85.70
2019-04-29T05:24:03.263Z,85.50
2019-04-29T05:26:32.414Z,85.20
2019-04-29T05:29:01.473Z,85.20
2019-04-29T05:31:30.618Z,84.90
2019-04-29T05:33:59.670Z,84.80
2019-04-29T05:36:39.445Z,85.10
2019-04-29T05:39:10.301Z,84.70
2019-04-29T05:41:39.367Z,84.80
2019-04-29T05:44:12.864Z,84.80
2019-04-29T05:46:43.768Z,84.50
2019-04-29T05:49:14.495Z,84.60
2019-04-29T05:51:45.290Z,84.20
2019-04-29T05:54:21.953Z,84.30
2019-04-29T05:56:51.185Z,84.30
2019-04-29T05:59:20.234Z,84.00
2019-04-29T06:01:49.300Z,84.00
2019-04-29T06:04:18.376Z,84.10
2019-04-29T06:06:47.473Z,83.70
2019-04-29T06:09:18.177Z,83.50
2019-04-29T06:11:47.661Z,83.60
2019-04-29T06:14:16.729Z,83.50
2019-04-29T06:16:45.774Z,83.70
2019-04-29T06:19:14.843Z,83.80
2019-04-29T06:21:43.887Z,83.80
2019-04-29T06:24:12.953Z,83.70
2019-04-29T06:26:43.645Z,83.50
2019-04-29T06:29:12.787Z,83.30
2019-04-29T06:31:41.840Z,83.30
2019-04-29T06:34:10.925Z,83.60
2019-04-29T06:36:39.965Z,83.30
2019-04-29T06:39:09.025Z,83.10
2019-04-29T06:41:40.638Z,83.10
2019-04-29T06:44:16.015Z,83.00
2019-04-29T06:46:39.618Z,83.00
2019-04-29T06:49:10.459Z,83.00
2019-04-29T06:51:39.455Z,83.00
2019-04-29T06:54:08.506Z,83.10
2019-04-29T06:56:37.547Z,83.20
2019-04-29T06:59:07.568Z,83.60
2019-04-29T07:01:38.600Z,83.90
2019-04-29T07:04:07.834Z,84.10
2019-04-29T07:06:36.870Z,84.20
2019-04-29T07:09:07.272Z,84.40
2019-04-29T07:11:38.246Z,84.70
2019-04-29T07:14:07.248Z,84.90
2019-04-29T07:16:36.305Z,85.00
2019-04-29T07:19:06.550Z,85.20
2019-04-29T07:21:35.596Z,85.30
2019-04-29T07:24:04.954Z,85.40
2019-04-29T07:26:34.038Z,85.30
2019-04-29T07:29:03.116Z,85.30
2019-04-29T07:31:33.379Z,85.80
2019-04-29T07:34:02.928Z,85.20
2019-04-29T07:36:31.980Z,85.20
2019-04-29T07:39:01.008Z,84.90
2019-04-29T07:41:30.083Z,85.00
2019-04-29T07:43:59.114Z,85.10
2019-04-29T07:46:36.407Z,84.80
2019-04-29T07:49:05.747Z,85.20
2019-04-29T07:51:34.808Z,85.00
2019-04-29T07:54:04.849Z,85.10
2019-04-29T07:56:37.733Z,85.10
2019-04-29T07:59:04.979Z,85.10
2019-04-29T08:01:34.125Z,85.00
2019-04-29T08:04:03.164Z,85.00
2019-04-29T08:06:33.161Z,84.90
2019-04-29T08:09:07.413Z,84.80
2019-04-29T08:11:33.214Z,85.00
2019-04-29T08:14:02.892Z,84.90
2019-04-29T08:16:31.949Z,85.00
2019-04-29T08:19:01.022Z,84.80
2019-04-29T08:21:30.087Z,85.50
2019-04-29T08:23:59.134Z,85.10
2019-04-29T08:26:28.194Z,85.30
2019-04-29T08:29:00.366Z,85.50
2019-04-29T08:31:28.034Z,85.60
2019-04-29T08:33:57.353Z,85.60
2019-04-29T08:36:26.421Z,85.70
2019-04-29T08:39:07.961Z,86.60
2019-04-29T08:41:29.601Z,85.60
2019-04-29T08:44:16.318Z,85.80
2019-04-29T08:46:51.645Z,85.50
2019-04-29T08:49:17.012Z,85.70
2019-04-29T08:51:46.088Z,85.60
2019-04-29T08:54:16.009Z,85.80
2019-04-29T08:57:01.673Z,85.60
2019-04-29T08:59:20.694Z,85.80
2019-04-29T09:01:47.518Z,85.90
2019-04-29T09:04:16.546Z,86.10
2019-04-29T09:06:45.618Z,86.30
2019-04-29T09:09:28.720Z,86.50
2019-04-29T09:11:47.872Z,86.90
2019-04-29T09:14:16.457Z,87.00
2019-04-29T09:16:45.578Z,87.30
2019-04-29T09:19:14.628Z,87.30
2019-04-29T09:21:45.398Z,87.40
2019-04-29T09:24:14.466Z,87.80
2019-04-29T09:26:47.988Z,87.80
2019-04-29T09:29:27.712Z,87.90
2019-04-29T09:31:56.778Z,88.20
2019-04-29T09:34:26.498Z,88.30
2019-04-29T09:36:55.781Z,88.50
2019-04-29T09:39:24.849Z,88.50
2019-04-29T09:41:58.323Z,88.60
2019-04-29T09:44:47.071Z,89.30
2019-04-29T09:47:16.292Z,89.30
2019-04-29T09:49:45.373Z,89.50
2019-04-29T09:52:14.458Z,89.80
2019-04-29T09:54:43.638Z,90.10
2019-04-29T09:57:12.694Z,90.40
2019-04-29T09:59:55.575Z,90.40
2019-04-29T10:02:44.533Z,90.70
2019-04-29T10:05:15.578Z,90.90
2019-04-29T10:07:44.645Z,91.00
2019-04-29T10:10:14.045Z,91.00
2019-04-29T10:12:43.752Z,91.10
2019-04-29T10:15:14.623Z,91.20
2019-04-29T10:17:55.652Z,91.20
2019-04-29T10:20:23.577Z,91.30
2019-04-29T10:22:53.781Z,91.40
2019-04-29T10:25:23.567Z,91.50
2019-04-29T10:27:52.686Z,91.50
2019-04-29T10:30:26.844Z,91.50
2019-04-29T10:32:54.308Z,91.40
2019-04-29T10:35:23.563Z,91.50
2019-04-29T10:37:52.611Z,91.60
2019-04-29T10:40:26.536Z,91.60
2019-04-29T10:43:11.354Z,91.70
2019-04-29T10:45:42.073Z,91.70
2019-04-29T10:48:15.538Z,91.90
2019-04-29T10:50:47.092Z,91.90
2019-04-29T10:53:17.439Z,92.10
2019-04-29T10:55:46.577Z,92.20
2019-04-29T10:58:15.672Z,92.30
2019-04-29T11:01:04.478Z,92.60
2019-04-29T11:03:33.668Z,92.80
2019-04-29T11:06:02.788Z,93.50
2019-04-29T11:08:45.621Z,94.10
2019-04-29T11:11:22.685Z,94.60
2019-04-29T11:13:50.349Z,94.70
2019-04-29T11:16:17.336Z,95.20
2019-04-29T11:18:46.468Z,95.50
2019-04-29T11:21:15.541Z,95.70
2019-04-29T11:23:46.304Z,95.70
2019-04-29T11:26:20.173Z,96.00
2019-04-29T11:28:51.267Z,96.10
2019-04-29T11:31:21.673Z,96.20
2019-04-29T11:34:01.397Z,96.30
2019-04-29T11:36:30.822Z,96.40
2019-04-29T11:38:59.891Z,96.50
2019-04-29T11:41:31.337Z,96.70
2019-04-29T11:44:00.391Z,96.60
2019-04-29T11:46:29.539Z,96.60
2019-04-29T11:49:00.239Z,96.60
2019-04-29T11:51:44.173Z,96.70
2019-04-29T11:54:08.262Z,96.80
2019-04-29T11:56:35.800Z,96.80
2019-04-29T11:59:16.380Z,96.90
2019-04-29T12:01:51.482Z,96.90
2019-04-29T12:04:28.604Z,97.00
2019-04-29T12:06:58.183Z,96.90
2019-04-29T12:09:30.558Z,96.90
2019-04-29T12:11:58.402Z,97.40
2019-04-29T12:14:39.153Z,97.10
2019-04-29T12:17:09.965Z,97.10
2019-04-29T12:19:40.648Z,97.10
2019-04-29T12:22:15.110Z,97.10
2019-04-29T12:24:40.534Z,97.10
2019-04-29T12:27:10.123Z,97.10
2019-04-29T12:29:39.169Z,97.00
2019-04-29T12:32:15.627Z,97.00
2019-04-29T12:35:01.749Z,97.00
2019-04-29T12:37:35.238Z,97.00
2019-04-29T12:40:14.602Z,96.90
2019-04-29T12:42:47.734Z,96.90
2019-04-29T12:45:24.554Z,96.90
2019-04-29T12:47:54.110Z,96.80
2019-04-29T12:50:23.338Z,96.70
2019-04-29T12:52:52.405Z,96.70
2019-04-29T12:55:43.744Z,96.60
2019-04-29T12:57:59.752Z,96.60
2019-04-29T13:00:30.480Z,96.60
2019-04-29T13:03:19.200Z,96.50
2019-04-29T13:06:02.283Z,96.50
2019-04-29T13:08:34.240Z,96.40
2019-04-29T13:11:04.935Z,96.40
2019-04-29T13:13:33.994Z,96.30
2019-04-29T13:16:10.333Z,96.30
2019-04-29T13:18:43.482Z,96.20
2019-04-29T13:21:12.557Z,96.20
2019-04-29T13:23:55.603Z,96.10
2019-04-29T13:26:12.585Z,96.20
2019-04-29T13:28:59.002Z,96.10
2019-04-29T13:31:12.460Z,96.00
2019-04-29T13:33:41.670Z,96.00
2019-04-29T13:36:10.756Z,95.90
2019-04-29T13:38:39.825Z,96.20
2019-04-29T13:41:13.388Z,95.70
2019-04-29T13:43:39.743Z,95.80
2019-04-29T13:46:17.109Z,95.80
2019-04-29T13:49:12.210Z,95.70
2019-04-29T13:51:36.981Z,95.70
2019-04-29T13:54:06.573Z,95.80
2019-04-29T13:56:54.763Z,95.80
2019-04-29T13:59:10.584Z,95.80
2019-04-29T14:02:00.268Z,95.80
2019-04-29T14:04:28.615Z,95.90
2019-04-29T14:06:57.990Z,95.90
2019-04-29T14:09:27.311Z,95.90
2019-04-29T14:12:05.643Z,95.90
2019-04-29T14:14:28.373Z,96.00
2019-04-29T14:17:17.012Z,95.90
2019-04-29T14:19:41.119Z,95.90
2019-04-29T14:21:59.218Z,95.90
2019-04-29T14:24:28.282Z,95.90
2019-04-29T14:26:57.628Z,95.90
2019-04-29T14:29:28.266Z,95.90
2019-04-29T14:32:01.209Z,96.00
2019-04-29T14:34:43.618Z,96.10
2019-04-29T14:37:21.386Z,96.00
2019-04-29T14:39:43.532Z,96.00
2019-04-29T14:42:30.143Z,95.90
2019-04-29T14:45:06.128Z,95.80
2019-04-29T14:47:42.948Z,95.80
2019-04-29T14:50:15.557Z,95.80
2019-04-29T14:52:49.244Z,95.60
2019-04-29T14:55:19.993Z,95.60
2019-04-29T14:57:46.475Z,95.70
2019-04-29T15:00:26.259Z,95.50
2019-04-29T15:02:55.805Z,95.90
2019-04-29T15:05:26.272Z,95.30
2019-04-29T15:07:55.371Z,95.30
2019-04-29T15:10:26.773Z,95.20
2019-04-29T15:13:19.264Z,95.20
2019-04-29T15:15:38.327Z,95.30
2019-04-29T15:18:16.221Z,95.30
2019-04-29T15:20:49.989Z,95.40
2019-04-29T15:23:28.406Z,95.40
2019-04-29T15:25:49.850Z,95.30
2019-04-29T15:28:19.104Z,95.30
2019-04-29T15:30:48.215Z,95.30
2019-04-29T15:33:17.285Z,95.40
2019-04-29T15:35:46.393Z,95.40
2019-04-29T15:38:15.473Z,95.30
2019-04-29T15:40:44.518Z,95.70
2019-04-29T15:43:13.738Z,95.40
2019-04-29T15:45:44.362Z,95.50
2019-04-29T15:48:13.495Z,95.50
2019-04-29T15:50:42.565Z,95.60
2019-04-29T15:53:11.641Z,95.50
2019-04-29T15:55:41.384Z,95.60
2019-04-29T15:58:10.726Z,95.70
2019-04-29T16:00:40.950Z,95.70
2019-04-29T16:03:12.617Z,95.70
2019-04-29T16:06:10.792Z,96.00
2019-04-29T16:08:15.299Z,95.60
2019-04-29T16:10:46.063Z,95.60
2019-04-29T16:13:16.780Z,95.60
2019-04-29T16:15:45.900Z,95.60
2019-04-29T16:18:15.102Z,95.60
2019-04-29T16:20:44.276Z,95.50
2019-04-29T16:23:13.365Z,95.50
2019-04-29T16:25:46.217Z,95.50
2019-04-29T16:28:13.217Z,95.40
2019-04-29T16:30:42.330Z,95.20
2019-04-29T16:33:14.163Z,95.30
2019-04-29T16:35:42.204Z,95.30
2019-04-29T16:38:13.766Z,95.30
2019-04-29T16:40:43.830Z,95.30
2019-04-29T16:43:32.759Z,95.40
2019-04-29T16:46:09.552Z,95.50
2019-04-29T16:48:39.272Z,95.50
2019-04-29T16:51:14.468Z,95.50
2019-04-29T16:53:39.280Z,95.60
2019-04-29T16:56:15.658Z,95.60
2019-04-29T16:58:39.192Z,95.60
2019-04-29T17:01:08.413Z,95.70
2019-04-29T17:03:37.484Z,95.70
2019-04-29T17:06:06.567Z,95.70
2019-04-29T17:09:02.958Z,95.70
2019-04-29T17:11:26.555Z,95.80
2019-04-29T17:13:55.644Z,95.90
2019-04-29T17:16:26.330Z,95.80
2019-04-29T17:18:56.207Z,95.90
2019-04-29T17:21:25.942Z,95.90
2019-04-29T17:23:55.003Z,95.90
2019-04-29T17:26:25.718Z,95.90
2019-04-29T17:29:11.547Z,95.90
2019-04-29T17:31:41.246Z,96.00
2019-04-29T17:34:43.810Z,96.00
2019-04-29T17:36:49.363Z,95.90
2019-04-29T17:39:18.891Z,95.70
2019-04-29T17:41:48.027Z,95.80
2019-04-29T17:44:36.857Z,95.80
2019-04-29T17:47:11.586Z,95.90
2019-04-29T17:49:51.828Z,95.90
2019-04-29T17:52:22.617Z,96.00
2019-04-29T17:54:54.974Z,96.00
2019-04-29T17:57:38.076Z,96.10
2019-04-29T18:00:28.602Z,96.20
2019-04-29T18:03:15.894Z,96.30
2019-04-29T18:06:02.949Z,96.30
2019-04-29T18:09:01.293Z,96.50
2019-04-29T18:11:30.355Z,96.60
2019-04-29T18:13:59.420Z,96.60
2019-04-29T18:16:30.130Z,96.60
2019-04-29T18:19:05.529Z,96.60
2019-04-29T18:21:47.352Z,96.70
2019-04-29T18:24:23.146Z,96.70
2019-04-29T18:27:08.610Z,96.70
2019-04-29T18:29:41.596Z,96.70
2019-04-29T18:32:08.324Z,96.70
2019-04-29T18:34:37.656Z,96.90
2019-04-29T18:37:06.766Z,96.90
2019-04-29T18:39:35.841Z,96.90
2019-04-29T18:42:06.791Z,96.80
2019-04-29T18:44:36.094Z,96.80
2019-04-29T18:47:05.640Z,97.00
2019-04-29T18:49:34.774Z,96.90
2019-04-29T18:52:06.041Z,97.00
2019-04-29T18:54:35.791Z,97.00
2019-04-29T18:57:05.887Z,97.00
2019-04-29T18:59:36.690Z,97.10
2019-04-29T19:02:09.291Z,97.10
2019-04-29T19:04:48.490Z,97.20
2019-04-29T19:07:15.519Z,97.20
2019-04-29T19:09:45.292Z,97.10
2019-04-29T19:12:15.764Z,97.50
2019-04-29T19:14:47.679Z,97.20
2019-04-29T19:17:16.114Z,97.30
2019-04-29T19:19:45.469Z,97.30
2019-04-29T19:22:15.662Z,97.30
2019-04-29T19:24:48.036Z,97.40
2019-04-29T19:27:15.747Z,97.40
2019-04-29T19:29:44.823Z,97.40
2019-04-29T19:32:13.893Z,97.40
2019-04-29T19:34:43.645Z,97.50
2019-04-29T19:37:15.382Z,97.50
2019-04-29T19:39:44.931Z,97.50
2019-04-29T19:42:16.761Z,97.50
2019-04-29T19:44:45.271Z,97.70
2019-04-29T19:47:15.127Z,97.60
2019-04-29T19:49:45.961Z,97.70
2019-04-29T19:52:18.747Z,97.70
2019-04-29T19:54:45.941Z,97.70
2019-04-29T19:57:15.039Z,97.80
2019-04-29T19:59:51.342Z,97.90
2019-04-29T20:02:17.029Z,97.90
2019-04-29T20:04:59.445Z,98.00
2019-04-29T20:07:28.062Z,98.00
2019-04-29T20:10:03.627Z,98.10
2019-04-29T20:12:28.755Z,98.50
2019-04-29T20:14:59.853Z,98.30
2019-04-29T20:17:31.531Z,98.40
2019-04-29T20:20:05.621Z,98.50
2019-04-29T20:22:37.026Z,98.60
2019-04-29T20:25:07.249Z,98.60
2019-04-29T20:27:37.701Z,98.70
2019-04-29T20:30:16.709Z,98.80
2019-04-29T20:32:38.975Z,98.90
2019-04-29T20:35:09.130Z,99.00
2019-04-29T20:37:38.423Z,99.00
2019-04-29T20:40:08.096Z,99.10
2019-04-29T20:42:40.463Z,99.20
2019-04-29T20:45:08.421Z,99.20
2019-04-29T20:47:41.638Z,99.30
2019-04-29T20:50:13.970Z,99.40
2019-04-29T20:53:02.255Z,99.40
2019-04-29T20:55:32.030Z,99.50
2019-04-29T20:58:03.694Z,99.50
2019-04-29T21:00:35.240Z,99.50
2019-04-29T21:03:09.297Z,99.70
2019-04-29T21:05:47.102Z,99.70
2019-04-29T21:08:14.637Z,99.70
2019-04-29T21:10:38.000Z,99.80
2019-04-29T21:13:16.201Z,99.90
2019-04-29T21:15:55.578Z,99.90
2019-04-29T21:18:25.111Z,99.90
2019-04-29T21:20:59.705Z,99.90
2019-04-29T21:23:31.500Z,99.90
2019-04-29T21:26:00.424Z,99.90
2019-04-29T21:28:31.527Z,99.90
2019-04-29T21:30:58.873Z,99.90
2019-04-29T21:33:27.913Z,99.90
2019-04-29T21:35:58.766Z,99.90
2019-04-29T21:38:41.457Z,99.90
2019-04-29T21:41:20.268Z,99.90
2019-04-29T21:43:53.576Z,99.90
2019-04-29T21:46:27.923Z,99.90
2019-04-29T21:48:51.883Z,99.90
2019-04-29T21:51:20.948Z,99.90
2019-04-29T21:53:49.997Z,99.90
2019-04-29T21:56:19.131Z,99.90
2019-04-29T21:58:48.167Z,99.90
2019-04-29T22:01:17.971Z,99.90
2019-04-29T22:03:47.060Z,99.90
2019-04-29T22:06:16.307Z,99.90
2019-04-29T22:09:40.542Z,99.90
2019-04-29T22:12:08.284Z,99.90
2019-04-29T22:21:36.273Z,99.90
2019-04-29T22:24:06.318Z,99.90
2019-04-29T22:26:35.726Z,99.90
2019-04-29T22:29:04.887Z,99.90
2019-04-29T22:31:36.409Z,99.90
2019-04-29T22:34:05.529Z,99.90
2019-04-29T22:36:36.021Z,99.90
2019-04-29T22:39:06.356Z,99.90
2019-04-29T22:41:55.654Z,99.90
2019-04-29T22:44:26.011Z,99.90
2019-04-29T22:46:55.518Z,99.90
2019-04-29T22:49:29.176Z,99.90
2019-04-29T22:51:57.066Z,99.80
2019-04-29T22:54:26.409Z,99.90
2019-04-29T22:56:56.744Z,99.90
2019-04-29T22:59:27.445Z,99.80
2019-04-29T23:01:56.683Z,99.80
2019-04-29T23:04:25.773Z,99.40
2019-04-29T23:06:54.853Z,99.20
2019-04-29T23:09:23.927Z,99.10
2019-04-29T23:11:53.046Z,98.90
2019-04-29T23:14:22.211Z,98.70
2019-04-29T23:16:51.350Z,98.50
2019-04-29T23:19:19.912Z,98.30
2019-04-29T23:21:52.773Z,98.20
2019-04-29T23:24:38.595Z,98.00
2019-04-29T23:27:11.644Z,98.00
2019-04-29T23:29:43.136Z,97.90
2019-04-29T23:32:10.331Z,97.80
2019-04-29T23:34:39.381Z,97.70
2019-04-29T23:37:07.895Z,97.50
2019-04-29T23:39:36.447Z,97.40
2019-04-29T23:42:12.238Z,97.30
2019-04-29T23:44:37.813Z,97.20
2019-04-29T23:47:10.452Z,97.50
2019-04-29T23:49:42.341Z,97.00
2019-04-29T23:52:11.081Z,97.10
2019-04-29T23:54:44.160Z,97.00
2019-04-29T23:57:11.448Z,96.90
2019-04-29T23:59:41.560Z,96.90
